sensor_id;sensor_type;location;lat;lon;timestamp;P1;durP1;ratioP1;P2;durP2;ratioP2
42430;SDS011;71905;47.466;19.024;2023-08-01T00:01:50;9.98;;;2.22;;
42430;SDS011;71905;47.466;19.024;2023-08-01T00:04:18;6.57;;;2.20;;
42430;SDS011;71905;47.466;19.024;2023-08-01T00:06:46;4.43;;;2.30;;
42430;SDS011;71905;47.466;19.024;2023-08-01T00:09:14;5.55;;;2.25;;
42430;SDS011;71905;47.466;19.024;2023-08-01T00:11:42;4.32;;;1.92;;
42430;SDS011;71905;47.466;19.024;2023-08-01T00:14:12;7.82;;;2.13;;
42430;SDS011;71905;47.466;19.024;2023-08-01T00:16:40;4.53;;;2.17;;
42430;SDS011;71905;47.466;19.024;2023-08-01T00:19:10;6.45;;;2.05;;
42430;SDS011;71905;47.466;19.024;2023-08-01T00:21:39;6.07;;;2.17;;
42430;SDS011;71905;47.466;19.024;2023-08-01T00:24:07;4.10;;;2.13;;
42430;SDS011;71905;47.466;19.024;2023-08-01T00:26:36;4.57;;;2.08;;
42430;SDS011;71905;47.466;19.024;2023-08-01T00:29:05;3.40;;;1.92;;
42430;SDS011;71905;47.466;19.024;2023-08-01T00:31:39;3.58;;;1.90;;
42430;SDS011;71905;47.466;19.024;2023-08-01T00:34:08;5.20;;;1.95;;
42430;SDS011;71905;47.466;19.024;2023-08-01T00:36:36;5.05;;;2.10;;
42430;SDS011;71905;47.466;19.024;2023-08-01T00:39:05;5.90;;;2.05;;
42430;SDS011;71905;47.466;19.024;2023-08-01T00:41:33;8.85;;;2.65;;
42430;SDS011;71905;47.466;19.024;2023-08-01T00:44:01;4.80;;;2.15;;
42430;SDS011;71905;47.466;19.024;2023-08-01T00:46:31;5.03;;;2.40;;
42430;SDS011;71905;47.466;19.024;2023-08-01T00:49:01;5.50;;;2.45;;
42430;SDS011;71905;47.466;19.024;2023-08-01T00:51:31;5.45;;;2.53;;
42430;SDS011;71905;47.466;19.024;2023-08-01T00:54:01;3.92;;;2.13;;
42430;SDS011;71905;47.466;19.024;2023-08-01T00:56:29;5.75;;;2.08;;
42430;SDS011;71905;47.466;19.024;2023-08-01T00:59:00;5.25;;;2.30;;
42430;SDS011;71905;47.466;19.024;2023-08-01T01:01:28;6.30;;;2.58;;
42430;SDS011;71905;47.466;19.024;2023-08-01T01:03:57;6.13;;;2.80;;
42430;SDS011;71905;47.466;19.024;2023-08-01T01:06:31;6.07;;;2.75;;
42430;SDS011;71905;47.466;19.024;2023-08-01T01:09:13;5.47;;;2.25;;
42430;SDS011;71905;47.466;19.024;2023-08-01T01:11:42;5.78;;;2.30;;
42430;SDS011;71905;47.466;19.024;2023-08-01T01:14:10;6.15;;;2.58;;
42430;SDS011;71905;47.466;19.024;2023-08-01T01:16:38;6.88;;;3.00;;
42430;SDS011;71905;47.466;19.024;2023-08-01T01:19:08;6.18;;;2.95;;
42430;SDS011;71905;47.466;19.024;2023-08-01T01:21:38;10.95;;;2.53;;
42430;SDS011;71905;47.466;19.024;2023-08-01T01:24:08;4.80;;;2.60;;
42430;SDS011;71905;47.466;19.024;2023-08-01T01:26:37;5.35;;;2.40;;
42430;SDS011;71905;47.466;19.024;2023-08-01T01:29:08;5.97;;;2.60;;
42430;SDS011;71905;47.466;19.024;2023-08-01T01:31:37;8.43;;;2.40;;
42430;SDS011;71905;47.466;19.024;2023-08-01T01:34:07;8.07;;;2.78;;
42430;SDS011;71905;47.466;19.024;2023-08-01T01:36:35;5.60;;;2.45;;
42430;SDS011;71905;47.466;19.024;2023-08-01T01:39:06;8.38;;;2.95;;
42430;SDS011;71905;47.466;19.024;2023-08-01T01:41:34;9.20;;;2.85;;
42430;SDS011;71905;47.466;19.024;2023-08-01T01:44:02;7.05;;;3.10;;
42430;SDS011;71905;47.466;19.024;2023-08-01T01:46:31;8.50;;;2.97;;
42430;SDS011;71905;47.466;19.024;2023-08-01T01:49:01;6.55;;;2.70;;
42430;SDS011;71905;47.466;19.024;2023-08-01T01:51:29;6.40;;;2.90;;
42430;SDS011;71905;47.466;19.024;2023-08-01T01:53:58;6.03;;;2.50;;
42430;SDS011;71905;47.466;19.024;2023-08-01T01:56:27;6.35;;;3.03;;
42430;SDS011;71905;47.466;19.024;2023-08-01T01:58:56;7.38;;;3.65;;
42430;SDS011;71905;47.466;19.024;2023-08-01T02:01:25;7.38;;;2.45;;
42430;SDS011;71905;47.466;19.024;2023-08-01T02:03:53;5.82;;;2.28;;
42430;SDS011;71905;47.466;19.024;2023-08-01T02:06:21;5.22;;;2.58;;
42430;SDS011;71905;47.466;19.024;2023-08-01T02:08:49;6.18;;;2.33;;
42430;SDS011;71905;47.466;19.024;2023-08-01T02:11:17;4.53;;;2.38;;
42430;SDS011;71905;47.466;19.024;2023-08-01T02:13:46;6.93;;;3.15;;
42430;SDS011;71905;47.466;19.024;2023-08-01T02:16:14;6.60;;;2.47;;
42430;SDS011;71905;47.466;19.024;2023-08-01T02:18:43;7.93;;;2.50;;
42430;SDS011;71905;47.466;19.024;2023-08-01T02:21:11;3.78;;;2.33;;
42430;SDS011;71905;47.466;19.024;2023-08-01T02:23:39;4.90;;;2.63;;
42430;SDS011;71905;47.466;19.024;2023-08-01T02:26:07;6.25;;;2.38;;
42430;SDS011;71905;47.466;19.024;2023-08-01T02:28:35;7.53;;;2.70;;
42430;SDS011;71905;47.466;19.024;2023-08-01T02:31:06;4.82;;;2.47;;
42430;SDS011;71905;47.466;19.024;2023-08-01T02:33:34;10.00;;;2.63;;
42430;SDS011;71905;47.466;19.024;2023-08-01T02:36:03;5.03;;;2.42;;
42430;SDS011;71905;47.466;19.024;2023-08-01T02:38:31;4.75;;;2.38;;
42430;SDS011;71905;47.466;19.024;2023-08-01T02:40:59;5.97;;;2.42;;
42430;SDS011;71905;47.466;19.024;2023-08-01T02:43:29;7.45;;;2.80;;
42430;SDS011;71905;47.466;19.024;2023-08-01T02:45:57;5.47;;;2.72;;
42430;SDS011;71905;47.466;19.024;2023-08-01T02:48:28;5.15;;;2.33;;
42430;SDS011;71905;47.466;19.024;2023-08-01T02:50:56;8.75;;;2.70;;
42430;SDS011;71905;47.466;19.024;2023-08-01T02:53:24;6.10;;;2.53;;
42430;SDS011;71905;47.466;19.024;2023-08-01T02:55:52;4.20;;;2.38;;
42430;SDS011;71905;47.466;19.024;2023-08-01T02:58:20;4.65;;;2.42;;
42430;SDS011;71905;47.466;19.024;2023-08-01T03:00:48;5.75;;;2.30;;
42430;SDS011;71905;47.466;19.024;2023-08-01T03:03:16;4.80;;;2.80;;
42430;SDS011;71905;47.466;19.024;2023-08-01T03:05:46;3.75;;;2.20;;
42430;SDS011;71905;47.466;19.024;2023-08-01T03:08:14;5.20;;;2.20;;
42430;SDS011;71905;47.466;19.024;2023-08-01T03:10:43;5.05;;;2.50;;
42430;SDS011;71905;47.466;19.024;2023-08-01T03:13:11;7.13;;;3.00;;
42430;SDS011;71905;47.466;19.024;2023-08-01T03:15:39;7.88;;;3.28;;
42430;SDS011;71905;47.466;19.024;2023-08-01T03:18:07;7.93;;;2.88;;
42430;SDS011;71905;47.466;19.024;2023-08-01T03:20:35;5.80;;;2.58;;
42430;SDS011;71905;47.466;19.024;2023-08-01T03:23:04;6.68;;;3.08;;
42430;SDS011;71905;47.466;19.024;2023-08-01T03:25:33;10.65;;;3.22;;
42430;SDS011;71905;47.466;19.024;2023-08-01T03:28:01;6.93;;;2.90;;
42430;SDS011;71905;47.466;19.024;2023-08-01T03:30:31;7.40;;;3.08;;
42430;SDS011;71905;47.466;19.024;2023-08-01T03:32:59;6.13;;;2.60;;
42430;SDS011;71905;47.466;19.024;2023-08-01T03:35:27;7.57;;;3.33;;
42430;SDS011;71905;47.466;19.024;2023-08-01T03:37:55;5.63;;;2.55;;
42430;SDS011;71905;47.466;19.024;2023-08-01T03:40:25;5.97;;;2.60;;
42430;SDS011;71905;47.466;19.024;2023-08-01T03:42:54;5.85;;;3.00;;
42430;SDS011;71905;47.466;19.024;2023-08-01T03:45:22;6.38;;;2.55;;
42430;SDS011;71905;47.466;19.024;2023-08-01T03:47:51;4.88;;;2.47;;
42430;SDS011;71905;47.466;19.024;2023-08-01T03:50:19;5.07;;;2.30;;
42430;SDS011;71905;47.466;19.024;2023-08-01T03:52:48;8.52;;;3.33;;
42430;SDS011;71905;47.466;19.024;2023-08-01T03:55:17;4.60;;;2.75;;
42430;SDS011;71905;47.466;19.024;2023-08-01T03:57:46;5.45;;;2.67;;
42430;SDS011;71905;47.466;19.024;2023-08-01T04:00:14;5.80;;;2.80;;
42430;SDS011;71905;47.466;19.024;2023-08-01T04:02:44;8.70;;;2.85;;
42430;SDS011;71905;47.466;19.024;2023-08-01T04:05:17;7.35;;;3.10;;
42430;SDS011;71905;47.466;19.024;2023-08-01T04:07:45;7.22;;;3.08;;
42430;SDS011;71905;47.466;19.024;2023-08-01T04:10:13;6.60;;;3.03;;
42430;SDS011;71905;47.466;19.024;2023-08-01T04:12:41;12.35;;;3.03;;
42430;SDS011;71905;47.466;19.024;2023-08-01T04:15:11;7.57;;;3.30;;
42430;SDS011;71905;47.466;19.024;2023-08-01T04:17:39;7.57;;;3.38;;
42430;SDS011;71905;47.466;19.024;2023-08-01T04:20:07;10.52;;;3.72;;
42430;SDS011;71905;47.466;19.024;2023-08-01T04:22:35;9.45;;;3.92;;
42430;SDS011;71905;47.466;19.024;2023-08-01T04:25:04;8.77;;;3.17;;
42430;SDS011;71905;47.466;19.024;2023-08-01T04:27:32;8.27;;;2.78;;
42430;SDS011;71905;47.466;19.024;2023-08-01T04:30:00;7.20;;;2.78;;
42430;SDS011;71905;47.466;19.024;2023-08-01T04:32:30;6.70;;;2.90;;
42430;SDS011;71905;47.466;19.024;2023-08-01T04:34:57;6.60;;;2.90;;
42430;SDS011;71905;47.466;19.024;2023-08-01T04:37:26;6.50;;;2.85;;
42430;SDS011;71905;47.466;19.024;2023-08-01T04:39:54;10.77;;;3.22;;
42430;SDS011;71905;47.466;19.024;2023-08-01T04:42:21;10.90;;;4.55;;
42430;SDS011;71905;47.466;19.024;2023-08-01T04:44:50;12.98;;;3.63;;
42430;SDS011;71905;47.466;19.024;2023-08-01T04:47:18;10.40;;;3.10;;
42430;SDS011;71905;47.466;19.024;2023-08-01T04:49:48;8.30;;;3.70;;
42430;SDS011;71905;47.466;19.024;2023-08-01T04:52:16;8.38;;;3.80;;
42430;SDS011;71905;47.466;19.024;2023-08-01T04:54:44;14.77;;;4.03;;
42430;SDS011;71905;47.466;19.024;2023-08-01T04:57:12;11.15;;;3.85;;
42430;SDS011;71905;47.466;19.024;2023-08-01T04:59:40;15.23;;;4.82;;
42430;SDS011;71905;47.466;19.024;2023-08-01T05:02:08;15.32;;;4.45;;
42430;SDS011;71905;47.466;19.024;2023-08-01T05:04:36;13.93;;;4.38;;
42430;SDS011;71905;47.466;19.024;2023-08-01T05:07:07;12.55;;;4.15;;
42430;SDS011;71905;47.466;19.024;2023-08-01T05:09:35;10.18;;;4.63;;
42430;SDS011;71905;47.466;19.024;2023-08-01T05:12:03;13.40;;;5.07;;
42430;SDS011;71905;47.466;19.024;2023-08-01T05:14:31;8.45;;;4.28;;
42430;SDS011;71905;47.466;19.024;2023-08-01T05:16:59;10.02;;;3.92;;
42430;SDS011;71905;47.466;19.024;2023-08-01T05:19:28;9.63;;;4.13;;
42430;SDS011;71905;47.466;19.024;2023-08-01T05:21:56;9.82;;;4.18;;
42430;SDS011;71905;47.466;19.024;2023-08-01T05:24:25;8.05;;;4.15;;
42430;SDS011;71905;47.466;19.024;2023-08-01T05:26:53;8.13;;;3.70;;
42430;SDS011;71905;47.466;19.024;2023-08-01T05:29:21;8.68;;;4.00;;
42430;SDS011;71905;47.466;19.024;2023-08-01T05:31:49;10.63;;;4.35;;
42430;SDS011;71905;47.466;19.024;2023-08-01T05:34:17;10.13;;;3.90;;
42430;SDS011;71905;47.466;19.024;2023-08-01T05:36:45;5.70;;;3.20;;
42430;SDS011;71905;47.466;19.024;2023-08-01T05:39:13;8.93;;;4.40;;
42430;SDS011;71905;47.466;19.024;2023-08-01T05:41:43;9.88;;;5.28;;
42430;SDS011;71905;47.466;19.024;2023-08-01T05:44:11;10.35;;;4.60;;
42430;SDS011;71905;47.466;19.024;2023-08-01T05:46:39;8.30;;;4.22;;
42430;SDS011;71905;47.466;19.024;2023-08-01T05:49:09;12.00;;;4.38;;
42430;SDS011;71905;47.466;19.024;2023-08-01T05:51:37;11.15;;;5.30;;
42430;SDS011;71905;47.466;19.024;2023-08-01T05:54:05;12.30;;;4.95;;
42430;SDS011;71905;47.466;19.024;2023-08-01T05:56:33;12.45;;;5.28;;
42430;SDS011;71905;47.466;19.024;2023-08-01T05:59:02;14.15;;;5.53;;
42430;SDS011;71905;47.466;19.024;2023-08-01T06:01:31;13.10;;;5.30;;
42430;SDS011;71905;47.466;19.024;2023-08-01T06:03:59;12.80;;;5.63;;
42430;SDS011;71905;47.466;19.024;2023-08-01T06:06:27;12.05;;;5.93;;
42430;SDS011;71905;47.466;19.024;2023-08-01T06:08:55;14.40;;;5.90;;
42430;SDS011;71905;47.466;19.024;2023-08-01T06:11:23;15.32;;;6.90;;
42430;SDS011;71905;47.466;19.024;2023-08-01T06:13:52;13.23;;;6.50;;
42430;SDS011;71905;47.466;19.024;2023-08-01T06:16:21;13.80;;;6.75;;
42430;SDS011;71905;47.466;19.024;2023-08-01T06:19:01;18.63;;;7.47;;
42430;SDS011;71905;47.466;19.024;2023-08-01T06:21:29;12.43;;;6.82;;
42430;SDS011;71905;47.466;19.024;2023-08-01T06:23:57;15.30;;;6.88;;
42430;SDS011;71905;47.466;19.024;2023-08-01T06:26:25;17.00;;;7.30;;
42430;SDS011;71905;47.466;19.024;2023-08-01T06:28:53;12.82;;;6.07;;
42430;SDS011;71905;47.466;19.024;2023-08-01T06:31:23;10.05;;;5.63;;
42430;SDS011;71905;47.466;19.024;2023-08-01T06:33:51;15.13;;;5.75;;
42430;SDS011;71905;47.466;19.024;2023-08-01T06:36:19;10.63;;;4.93;;
42430;SDS011;71905;47.466;19.024;2023-08-01T06:38:47;9.02;;;4.70;;
42430;SDS011;71905;47.466;19.024;2023-08-01T06:41:15;15.75;;;4.60;;
42430;SDS011;71905;47.466;19.024;2023-08-01T06:43:43;8.35;;;3.65;;
42430;SDS011;71905;47.466;19.024;2023-08-01T06:46:11;11.68;;;3.55;;
42430;SDS011;71905;47.466;19.024;2023-08-01T06:48:40;8.32;;;3.45;;
42430;SDS011;71905;47.466;19.024;2023-08-01T06:51:08;9.48;;;3.88;;
42430;SDS011;71905;47.466;19.024;2023-08-01T06:53:37;9.63;;;4.13;;
42430;SDS011;71905;47.466;19.024;2023-08-01T06:56:05;10.88;;;3.30;;
42430;SDS011;71905;47.466;19.024;2023-08-01T06:58:32;7.78;;;3.25;;
42430;SDS011;71905;47.466;19.024;2023-08-01T07:01:00;9.15;;;3.45;;
42430;SDS011;71905;47.466;19.024;2023-08-01T07:03:29;8.10;;;3.40;;
42430;SDS011;71905;47.466;19.024;2023-08-01T07:05:58;9.20;;;2.92;;
42430;SDS011;71905;47.466;19.024;2023-08-01T07:08:26;9.23;;;3.13;;
42430;SDS011;71905;47.466;19.024;2023-08-01T07:10:54;9.70;;;3.00;;
42430;SDS011;71905;47.466;19.024;2023-08-01T07:13:22;8.55;;;3.03;;
42430;SDS011;71905;47.466;19.024;2023-08-01T07:15:51;8.07;;;3.10;;
42430;SDS011;71905;47.466;19.024;2023-08-01T07:18:21;6.32;;;3.10;;
42430;SDS011;71905;47.466;19.024;2023-08-01T07:20:59;7.07;;;2.53;;
42430;SDS011;71905;47.466;19.024;2023-08-01T07:23:27;10.40;;;3.00;;
42430;SDS011;71905;47.466;19.024;2023-08-01T07:25:55;10.27;;;3.03;;
42430;SDS011;71905;47.466;19.024;2023-08-01T07:28:24;11.27;;;2.63;;
42430;SDS011;71905;47.466;19.024;2023-08-01T07:30:57;10.23;;;3.05;;
42430;SDS011;71905;47.466;19.024;2023-08-01T07:33:26;8.07;;;3.00;;
42430;SDS011;71905;47.466;19.024;2023-08-01T07:35:54;9.18;;;2.65;;
42430;SDS011;71905;47.466;19.024;2023-08-01T07:38:23;6.38;;;3.03;;
42430;SDS011;71905;47.466;19.024;2023-08-01T07:40:54;8.02;;;2.53;;
42430;SDS011;71905;47.466;19.024;2023-08-01T07:43:23;8.30;;;2.45;;
42430;SDS011;71905;47.466;19.024;2023-08-01T07:45:54;4.88;;;2.45;;
42430;SDS011;71905;47.466;19.024;2023-08-01T07:48:23;6.32;;;2.55;;
42430;SDS011;71905;47.466;19.024;2023-08-01T07:50:51;6.32;;;2.17;;
42430;SDS011;71905;47.466;19.024;2023-08-01T07:53:19;6.15;;;2.40;;
42430;SDS011;71905;47.466;19.024;2023-08-01T07:55:49;6.65;;;2.55;;
42430;SDS011;71905;47.466;19.024;2023-08-01T07:58:19;7.53;;;2.70;;
42430;SDS011;71905;47.466;19.024;2023-08-01T08:00:47;5.10;;;2.50;;
42430;SDS011;71905;47.466;19.024;2023-08-01T08:03:16;6.85;;;2.95;;
42430;SDS011;71905;47.466;19.024;2023-08-01T08:05:44;7.20;;;2.35;;
42430;SDS011;71905;47.466;19.024;2023-08-01T08:08:12;8.77;;;2.40;;
42430;SDS011;71905;47.466;19.024;2023-08-01T08:10:43;7.82;;;2.60;;
42430;SDS011;71905;47.466;19.024;2023-08-01T08:13:12;5.70;;;2.80;;
42430;SDS011;71905;47.466;19.024;2023-08-01T08:15:40;6.32;;;2.97;;
42430;SDS011;71905;47.466;19.024;2023-08-01T08:18:08;4.57;;;2.42;;
42430;SDS011;71905;47.466;19.024;2023-08-01T08:20:40;7.30;;;3.35;;
42430;SDS011;71905;47.466;19.024;2023-08-01T08:23:11;5.40;;;2.90;;
42430;SDS011;71905;47.466;19.024;2023-08-01T08:25:40;5.07;;;2.58;;
42430;SDS011;71905;47.466;19.024;2023-08-01T08:28:08;5.85;;;2.40;;
42430;SDS011;71905;47.466;19.024;2023-08-01T08:30:38;5.05;;;2.65;;
42430;SDS011;71905;47.466;19.024;2023-08-01T08:33:09;6.85;;;2.90;;
42430;SDS011;71905;47.466;19.024;2023-08-01T08:35:45;6.50;;;2.65;;
42430;SDS011;71905;47.466;19.024;2023-08-01T08:38:13;6.60;;;2.90;;
42430;SDS011;71905;47.466;19.024;2023-08-01T08:40:43;13.23;;;3.00;;
42430;SDS011;71905;47.466;19.024;2023-08-01T08:43:24;5.38;;;2.70;;
42430;SDS011;71905;47.466;19.024;2023-08-01T08:45:56;5.30;;;2.65;;
42430;SDS011;71905;47.466;19.024;2023-08-01T08:48:27;9.13;;;2.70;;
42430;SDS011;71905;47.466;19.024;2023-08-01T08:50:57;7.97;;;2.63;;
42430;SDS011;71905;47.466;19.024;2023-08-01T08:53:26;6.88;;;2.85;;
42430;SDS011;71905;47.466;19.024;2023-08-01T08:55:54;7.13;;;2.88;;
42430;SDS011;71905;47.466;19.024;2023-08-01T08:58:23;5.05;;;2.63;;
42430;SDS011;71905;47.466;19.024;2023-08-01T09:00:51;4.90;;;2.60;;
42430;SDS011;71905;47.466;19.024;2023-08-01T09:03:21;5.43;;;2.55;;
42430;SDS011;71905;47.466;19.024;2023-08-01T09:05:49;4.70;;;2.72;;
42430;SDS011;71905;47.466;19.024;2023-08-01T09:08:21;3.58;;;2.28;;
42430;SDS011;71905;47.466;19.024;2023-08-01T09:10:54;8.02;;;2.67;;
42430;SDS011;71905;47.466;19.024;2023-08-01T09:13:22;10.30;;;2.50;;
42430;SDS011;71905;47.466;19.024;2023-08-01T09:15:51;6.85;;;2.50;;
42430;SDS011;71905;47.466;19.024;2023-08-01T09:18:21;3.95;;;2.33;;
42430;SDS011;71905;47.466;19.024;2023-08-01T09:20:49;4.32;;;2.30;;
42430;SDS011;71905;47.466;19.024;2023-08-01T09:23:17;5.20;;;2.38;;
42430;SDS011;71905;47.466;19.024;2023-08-01T09:25:45;6.95;;;2.83;;
42430;SDS011;71905;47.466;19.024;2023-08-01T09:28:17;5.07;;;2.50;;
42430;SDS011;71905;47.466;19.024;2023-08-01T09:30:46;11.48;;;2.40;;
42430;SDS011;71905;47.466;19.024;2023-08-01T09:33:16;7.80;;;2.50;;
42430;SDS011;71905;47.466;19.024;2023-08-01T09:35:46;6.18;;;2.53;;
42430;SDS011;71905;47.466;19.024;2023-08-01T09:38:15;7.78;;;2.22;;
42430;SDS011;71905;47.466;19.024;2023-08-01T09:40:43;5.38;;;2.15;;
42430;SDS011;71905;47.466;19.024;2023-08-01T09:43:12;3.67;;;2.35;;
42430;SDS011;71905;47.466;19.024;2023-08-01T09:45:50;9.02;;;2.67;;
42430;SDS011;71905;47.466;19.024;2023-08-01T09:48:22;4.07;;;2.35;;
42430;SDS011;71905;47.466;19.024;2023-08-01T09:51:02;6.80;;;2.30;;
42430;SDS011;71905;47.466;19.024;2023-08-01T09:53:32;4.97;;;1.95;;
42430;SDS011;71905;47.466;19.024;2023-08-01T09:56:00;3.55;;;2.08;;
42430;SDS011;71905;47.466;19.024;2023-08-01T09:58:31;4.75;;;2.15;;
42430;SDS011;71905;47.466;19.024;2023-08-01T10:01:00;7.75;;;2.20;;
42430;SDS011;71905;47.466;19.024;2023-08-01T10:03:29;6.07;;;2.40;;
42430;SDS011;71905;47.466;19.024;2023-08-01T10:05:59;4.28;;;2.00;;
42430;SDS011;71905;47.466;19.024;2023-08-01T10:08:28;10.35;;;2.30;;
42430;SDS011;71905;47.466;19.024;2023-08-01T10:10:59;4.78;;;2.25;;
42430;SDS011;71905;47.466;19.024;2023-08-01T10:13:31;4.32;;;2.30;;
42430;SDS011;71905;47.466;19.024;2023-08-01T10:16:00;6.72;;;2.67;;
42430;SDS011;71905;47.466;19.024;2023-08-01T10:18:29;5.95;;;2.40;;
42430;SDS011;71905;47.466;19.024;2023-08-01T10:21:00;7.85;;;2.15;;
42430;SDS011;71905;47.466;19.024;2023-08-01T10:23:30;5.63;;;2.40;;
42430;SDS011;71905;47.466;19.024;2023-08-01T10:25:58;5.68;;;2.47;;
42430;SDS011;71905;47.466;19.024;2023-08-01T10:28:32;6.25;;;2.60;;
42430;SDS011;71905;47.466;19.024;2023-08-01T11:01:57;6.95;;;2.60;;
42430;SDS011;71905;47.466;19.024;2023-08-01T11:04:26;7.78;;;2.60;;
42430;SDS011;71905;47.466;19.024;2023-08-01T11:06:55;6.07;;;2.13;;
42430;SDS011;71905;47.466;19.024;2023-08-01T11:09:24;10.10;;;2.20;;
42430;SDS011;71905;47.466;19.024;2023-08-01T11:11:53;4.80;;;2.13;;
42430;SDS011;71905;47.466;19.024;2023-08-01T11:14:23;7.68;;;2.25;;
42430;SDS011;71905;47.466;19.024;2023-08-01T11:16:55;8.52;;;2.00;;
42430;SDS011;71905;47.466;19.024;2023-08-01T11:19:26;8.73;;;2.30;;
42430;SDS011;71905;47.466;19.024;2023-08-01T11:21:55;6.10;;;2.00;;
42430;SDS011;71905;47.466;19.024;2023-08-01T11:24:25;4.43;;;1.85;;
42430;SDS011;71905;47.466;19.024;2023-08-01T11:26:54;6.15;;;2.17;;
42430;SDS011;71905;47.466;19.024;2023-08-01T11:29:22;4.50;;;1.70;;
42430;SDS011;71905;47.466;19.024;2023-08-01T11:31:55;4.18;;;2.20;;
42430;SDS011;71905;47.466;19.024;2023-08-01T11:34:24;3.90;;;2.10;;
42430;SDS011;71905;47.466;19.024;2023-08-01T11:36:52;4.60;;;2.17;;
42430;SDS011;71905;47.466;19.024;2023-08-01T11:39:21;4.00;;;1.90;;
42430;SDS011;71905;47.466;19.024;2023-08-01T11:41:49;7.38;;;1.90;;
42430;SDS011;71905;47.466;19.024;2023-08-01T11:44:23;5.55;;;1.83;;
42430;SDS011;71905;47.466;19.024;2023-08-01T11:46:51;4.40;;;2.08;;
42430;SDS011;71905;47.466;19.024;2023-08-01T11:49:20;5.35;;;2.03;;
42430;SDS011;71905;47.466;19.024;2023-08-01T11:51:49;5.95;;;2.50;;
42430;SDS011;71905;47.466;19.024;2023-08-01T11:54:17;3.40;;;2.00;;
42430;SDS011;71905;47.466;19.024;2023-08-01T11:56:45;3.75;;;2.00;;
42430;SDS011;71905;47.466;19.024;2023-08-01T11:59:14;3.97;;;2.00;;
42430;SDS011;71905;47.466;19.024;2023-08-01T12:01:45;3.53;;;2.00;;
42430;SDS011;71905;47.466;19.024;2023-08-01T12:04:24;8.02;;;2.10;;
42430;SDS011;71905;47.466;19.024;2023-08-01T12:06:53;5.13;;;1.90;;
42430;SDS011;71905;47.466;19.024;2023-08-01T12:09:23;5.53;;;2.00;;
42430;SDS011;71905;47.466;19.024;2023-08-01T12:11:57;5.20;;;2.30;;
42430;SDS011;71905;47.466;19.024;2023-08-01T12:14:26;7.28;;;2.33;;
42430;SDS011;71905;47.466;19.024;2023-08-01T12:16:55;6.72;;;2.10;;
42430;SDS011;71905;47.466;19.024;2023-08-01T12:19:24;4.93;;;2.15;;
42430;SDS011;71905;47.466;19.024;2023-08-01T12:21:52;5.13;;;1.90;;
42430;SDS011;71905;47.466;19.024;2023-08-01T12:24:20;6.35;;;2.00;;
42430;SDS011;71905;47.466;19.024;2023-08-01T12:26:49;5.93;;;1.98;;
42430;SDS011;71905;47.466;19.024;2023-08-01T12:29:17;8.15;;;1.92;;
42430;SDS011;71905;47.466;19.024;2023-08-01T12:31:45;6.80;;;2.00;;
42430;SDS011;71905;47.466;19.024;2023-08-01T12:34:13;5.00;;;1.80;;
42430;SDS011;71905;47.466;19.024;2023-08-01T12:36:43;3.85;;;1.83;;
42430;SDS011;71905;47.466;19.024;2023-08-01T12:39:11;4.82;;;2.20;;
42430;SDS011;71905;47.466;19.024;2023-08-01T12:41:39;3.78;;;2.10;;
42430;SDS011;71905;47.466;19.024;2023-08-01T12:44:07;5.82;;;1.83;;
42430;SDS011;71905;47.466;19.024;2023-08-01T12:46:35;6.63;;;1.88;;
42430;SDS011;71905;47.466;19.024;2023-08-01T12:49:03;6.30;;;1.80;;
42430;SDS011;71905;47.466;19.024;2023-08-01T12:51:31;3.00;;;1.70;;
42430;SDS011;71905;47.466;19.024;2023-08-01T12:54:00;5.70;;;2.00;;
42430;SDS011;71905;47.466;19.024;2023-08-01T12:57:18;4.13;;;1.90;;
42430;SDS011;71905;47.466;19.024;2023-08-01T12:59:46;4.55;;;1.83;;
42430;SDS011;71905;47.466;19.024;2023-08-01T13:02:15;7.28;;;1.60;;
42430;SDS011;71905;47.466;19.024;2023-08-01T13:04:43;3.95;;;1.95;;
42430;SDS011;71905;47.466;19.024;2023-08-01T13:07:11;4.63;;;1.80;;
42430;SDS011;71905;47.466;19.024;2023-08-01T13:09:39;4.72;;;1.70;;
42430;SDS011;71905;47.466;19.024;2023-08-01T13:12:07;6.72;;;2.05;;
42430;SDS011;71905;47.466;19.024;2023-08-01T13:14:37;4.60;;;1.92;;
42430;SDS011;71905;47.466;19.024;2023-08-01T13:17:05;6.82;;;2.05;;
42430;SDS011;71905;47.466;19.024;2023-08-01T13:19:33;4.32;;;1.85;;
42430;SDS011;71905;47.466;19.024;2023-08-01T13:22:01;6.15;;;2.08;;
42430;SDS011;71905;47.466;19.024;2023-08-01T13:24:30;3.92;;;2.00;;
42430;SDS011;71905;47.466;19.024;2023-08-01T13:26:58;4.97;;;1.90;;
42430;SDS011;71905;47.466;19.024;2023-08-01T13:29:26;6.35;;;1.70;;
42430;SDS011;71905;47.466;19.024;2023-08-01T13:31:56;4.63;;;1.90;;
42430;SDS011;71905;47.466;19.024;2023-08-01T13:34:24;5.25;;;1.80;;
42430;SDS011;71905;47.466;19.024;2023-08-01T13:36:52;3.60;;;1.90;;
42430;SDS011;71905;47.466;19.024;2023-08-01T13:39:20;5.68;;;1.90;;
42430;SDS011;71905;47.466;19.024;2023-08-01T13:41:48;5.20;;;1.92;;
42430;SDS011;71905;47.466;19.024;2023-08-01T13:44:16;4.18;;;1.63;;
42430;SDS011;71905;47.466;19.024;2023-08-01T13:46:44;8.23;;;2.28;;
42430;SDS011;71905;47.466;19.024;2023-08-01T13:49:14;3.53;;;1.60;;
42430;SDS011;71905;47.466;19.024;2023-08-01T13:51:42;2.88;;;1.60;;
42430;SDS011;71905;47.466;19.024;2023-08-01T13:54:11;5.43;;;2.00;;
42430;SDS011;71905;47.466;19.024;2023-08-01T13:56:39;5.68;;;1.70;;
42430;SDS011;71905;47.466;19.024;2023-08-01T13:59:07;4.47;;;1.98;;
42430;SDS011;71905;47.466;19.024;2023-08-01T14:01:36;5.95;;;2.30;;
42430;SDS011;71905;47.466;19.024;2023-08-01T14:04:04;8.05;;;2.10;;
42430;SDS011;71905;47.466;19.024;2023-08-01T14:06:34;7.30;;;2.20;;
42430;SDS011;71905;47.466;19.024;2023-08-01T14:09:02;5.38;;;2.10;;
42430;SDS011;71905;47.466;19.024;2023-08-01T14:11:30;4.15;;;1.92;;
42430;SDS011;71905;47.466;19.024;2023-08-01T14:13:58;6.07;;;2.10;;
42430;SDS011;71905;47.466;19.024;2023-08-01T14:16:27;5.32;;;2.30;;
42430;SDS011;71905;47.466;19.024;2023-08-01T14:18:55;4.88;;;2.40;;
42430;SDS011;71905;47.466;19.024;2023-08-01T14:21:24;5.70;;;2.22;;
42430;SDS011;71905;47.466;19.024;2023-08-01T14:23:53;3.75;;;2.10;;
42430;SDS011;71905;47.466;19.024;2023-08-01T14:26:21;6.78;;;1.88;;
42430;SDS011;71905;47.466;19.024;2023-08-01T14:28:49;6.25;;;2.33;;
42430;SDS011;71905;47.466;19.024;2023-08-01T14:31:18;7.28;;;2.08;;
42430;SDS011;71905;47.466;19.024;2023-08-01T14:33:46;5.85;;;2.05;;
42430;SDS011;71905;47.466;19.024;2023-08-01T14:36:14;3.20;;;1.90;;
42430;SDS011;71905;47.466;19.024;2023-08-01T14:38:42;5.78;;;2.08;;
42430;SDS011;71905;47.466;19.024;2023-08-01T14:41:11;5.20;;;1.98;;
42430;SDS011;71905;47.466;19.024;2023-08-01T14:44:01;4.80;;;1.83;;
42430;SDS011;71905;47.466;19.024;2023-08-01T14:46:29;4.60;;;1.83;;
42430;SDS011;71905;47.466;19.024;2023-08-01T14:48:57;4.68;;;1.92;;
42430;SDS011;71905;47.466;19.024;2023-08-01T14:51:25;4.43;;;1.75;;
42430;SDS011;71905;47.466;19.024;2023-08-01T14:53:53;4.53;;;1.90;;
42430;SDS011;71905;47.466;19.024;2023-08-01T14:56:23;5.95;;;1.98;;
42430;SDS011;71905;47.466;19.024;2023-08-01T14:58:51;6.68;;;1.95;;
42430;SDS011;71905;47.466;19.024;2023-08-01T15:01:19;6.10;;;1.83;;
42430;SDS011;71905;47.466;19.024;2023-08-01T15:03:47;5.75;;;2.08;;
42430;SDS011;71905;47.466;19.024;2023-08-01T15:06:15;7.70;;;2.40;;
42430;SDS011;71905;47.466;19.024;2023-08-01T15:08:44;5.72;;;2.00;;
42430;SDS011;71905;47.466;19.024;2023-08-01T15:11:12;5.75;;;2.00;;
42430;SDS011;71905;47.466;19.024;2023-08-01T15:13:46;4.85;;;1.70;;
42430;SDS011;71905;47.466;19.024;2023-08-01T15:16:14;6.20;;;1.85;;